Weather History for Fort Morgan, CO

Change the Weather History Date:

Tuesday, January 29, 2013

  Actual Average (KAKO) Record (KAKO)
Temperature  
Mean Temperature 25 °F 29 °F  
Max Temperature 33 °F 40 °F 63 °F (1976)
Min Temperature 16 °F 17 °F -15 °F (1949)
Degree Days  
Heating Degree Days 40    
Month to date heating degree days  
Cooling Degree Days 0    
Month to date cooling degree days  
Moisture  
Dew Point 15 °F    
Average Humidity 67    
Maximum Humidity 89    
Minimum Humidity 46    
Precipitation  
Precipitation 0.00 in 0.01 in 0.65 in (1942)
Month to date precipitation 0.27  
Year to date precipitation 0.27  
Sea Level Pressure  
Sea Level Pressure 29.75 in    
Wind  
Wind Speed 14 mph (NNW)    
Max Wind Speed 24 mph    
Max Gust Speed 30 mph    
Visibility 10 miles    
Events      
T = Trace of Precipitation, MM = Missing Value Source: NWS Daily Summary

Daily Weather History Graph

Daily Weather History Graph

Search for Another Location

Airport:

Trip Planner

Search our weather history database for the weather conditions in past years. The results will help you decide how hot, cold, wet, or windy it might be!

Date:

Astronomy

Jan. 29, 2013 Rise Set
Actual Time 7:06 AM MST 5:10 PM MST
Civil Twilight 6:37 AM MST 5:39 PM MST
Nautical Twilight 6:05 AM MST 6:12 PM MST
Astronomical Twilight 5:33 AM MST 6:44 PM MST
Moon 8:09 PM MST (1/29) 8:04 AM MST (1/29)
Length of Visible Light 11h 01m
Length of Day
10h 03m
Waning Gibbous, 93% of the Moon is Illuminated
Jan 29
Waning Gibbous
Feb 3
Last Quarter
Feb 10
New
Feb 17
First Quarter
Feb 25
Full

Hourly Weather History & Observations

Time (MST) Temp. Windchill Dew Point Humidity Pressure Visibility Wind Dir Wind Speed Gust Speed Precip Events Conditions
12:15 AM 27.3 °F 17.7 °F 24.4 °F 89% 29.74 in 10.0 mi North 10.4 mph - N/A   Overcast
12:35 AM 28.0 °F 16.5 °F 21.0 °F 75% 29.73 in 10.0 mi North 15.0 mph - N/A   Overcast
12:55 AM 27.3 °F 16.6 °F 19.8 °F 73% 29.72 in 10.0 mi North 12.7 mph - N/A   Overcast
1:15 AM 26.4 °F 15.5 °F 19.2 °F 74% 29.71 in 10.0 mi North 12.7 mph - N/A   Overcast
1:35 AM 24.8 °F 13.4 °F 18.5 °F 77% 29.72 in 10.0 mi NNW 12.7 mph - N/A   Scattered Clouds
1:55 AM 24.1 °F 12.0 °F 16.9 °F 74% 29.72 in 10.0 mi NNW 13.8 mph - N/A   Clear
2:15 AM 24.8 °F 10.7 °F 19.8 °F 81% 29.72 in 10.0 mi NNW 19.6 mph 23.0 mph N/A   Scattered Clouds
2:35 AM 25.2 °F 12.9 °F 20.3 °F 82% 29.72 in 10.0 mi NNW 15.0 mph - N/A   Overcast
2:55 AM 25.7 °F 12.7 °F 19.4 °F 77% 29.72 in 10.0 mi North 17.3 mph - N/A   Overcast
3:15 AM 26.4 °F 13.2 °F 18.7 °F 73% 29.71 in 10.0 mi North 18.4 mph 24.2 mph N/A   Overcast
3:35 AM 26.6 °F 14.3 °F 18.0 °F 70% 29.70 in 10.0 mi NNW 16.1 mph 24.2 mph N/A   Overcast
3:55 AM 26.2 °F 11.5 °F 18.5 °F 73% 29.70 in 10.0 mi NNW 23.0 mph 26.5 mph N/A   Overcast
4:15 AM 25.5 °F 11.3 °F 19.6 °F 78% 29.70 in 10.0 mi NNW 20.7 mph 25.3 mph N/A   Overcast
4:35 AM 26.6 °F 14.7 °F 17.2 °F 68% 29.70 in 10.0 mi NW 15.0 mph - N/A   Overcast
4:55 AM 27.0 °F 15.6 °F 16.2 °F 64% 29.70 in 10.0 mi NNW 13.8 mph - N/A   Overcast
5:15 AM 26.6 °F 14.7 °F 15.1 °F 62% 29.69 in 10.0 mi NW 15.0 mph - N/A   Overcast
5:35 AM 26.4 °F 13.2 °F 13.8 °F 59% 29.69 in 10.0 mi NNW 18.4 mph 23.0 mph N/A   Overcast
5:55 AM 25.5 °F 12.9 °F 14.4 °F 63% 29.69 in 10.0 mi NNW 16.1 mph - N/A   Overcast
6:15 AM 24.8 °F 12.9 °F 14.7 °F 66% 29.69 in 10.0 mi NNW 13.8 mph - N/A   Overcast
6:35 AM 24.8 °F 12.9 °F 13.5 °F 62% 29.69 in 10.0 mi NNW 13.8 mph - N/A   Overcast
6:55 AM 23.7 °F 12.6 °F 14.0 °F 66% 29.70 in 10.0 mi NNW 11.5 mph - N/A   Overcast
7:15 AM 22.8 °F 16.7 °F 14.2 °F 69% 29.71 in 10.0 mi West 4.6 mph - N/A   Overcast
7:35 AM 21.2 °F 14.9 °F 14.5 °F 75% 29.71 in 10.0 mi West 4.6 mph - N/A   Overcast
7:55 AM 23.0 °F 11.7 °F 13.1 °F 66% 29.70 in 10.0 mi NNW 11.5 mph - N/A   Overcast
8:15 AM 23.0 °F 13.1 °F 12.7 °F 65% 29.71 in 10.0 mi NW 9.2 mph - N/A   Overcast
8:35 AM 23.7 °F 14.0 °F 12.4 °F 62% 29.71 in 10.0 mi NW 9.2 mph - N/A   Mostly Cloudy
8:55 AM 24.8 °F 15.3 °F 12.6 °F 60% 29.72 in 10.0 mi NW 9.2 mph - N/A   Overcast
9:15 AM 25.5 °F 14.9 °F 11.3 °F 55% 29.72 in 10.0 mi WNW 11.5 mph - N/A   Overcast
9:35 AM 26.1 °F 17.6 °F 13.1 °F 58% 29.72 in 10.0 mi West 8.1 mph - N/A   Overcast
9:55 AM 26.1 °F 16.8 °F 15.1 °F 63% 29.72 in 10.0 mi West 9.2 mph - N/A   Mostly Cloudy
10:15 AM 27.3 °F 17.7 °F 14.5 °F 59% 29.73 in 10.0 mi WNW 10.4 mph - N/A   Mostly Cloudy
10:35 AM 28.0 °F 17.5 °F 14.7 °F 57% 29.73 in 10.0 mi WNW 12.7 mph - N/A   Overcast
10:55 AM 28.0 °F 18.6 °F 16.3 °F 62% 29.73 in 10.0 mi WNW 10.4 mph - N/A   Mostly Cloudy
11:15 AM 29.1 °F 18.9 °F 18.1 °F 64% 29.72 in 10.0 mi WNW 12.7 mph - N/A   Mostly Cloudy
11:35 AM 30.2 °F 20.8 °F 19.2 °F 64% 29.72 in 10.0 mi WNW 11.5 mph - N/A   Mostly Cloudy
11:55 AM 31.1 °F 20.9 °F 19.6 °F 62% 29.70 in 10.0 mi WNW 13.8 mph 19.6 mph N/A   Scattered Clouds
12:15 PM 31.8 °F 20.6 °F 14.4 °F 49% 29.70 in 10.0 mi NW 17.3 mph 21.9 mph N/A   Clear
12:35 PM 32.2 °F 20.7 °F 14.2 °F 48% 29.69 in 10.0 mi NW 18.4 mph 23.0 mph N/A   Clear
12:55 PM 32.4 °F 21.3 °F 14.4 °F 48% 29.68 in 10.0 mi NW 17.3 mph 23.0 mph N/A   Clear
1:15 PM 33.4 °F 22.0 °F 15.6 °F 48% 29.67 in 10.0 mi NNW 19.6 mph 28.8 mph N/A   Clear
1:35 PM 33.3 °F 21.2 °F 15.1 °F 47% 29.67 in 10.0 mi NNW 21.9 mph 25.3 mph N/A   Clear
1:55 PM 32.9 °F 20.7 °F 14.2 °F 46% 29.68 in 10.0 mi NNW 21.9 mph 28.8 mph N/A   Clear
2:15 PM 32.9 °F 20.7 °F 14.7 °F 47% 29.68 in 10.0 mi North 21.9 mph 29.9 mph N/A   Clear
2:35 PM 32.5 °F 19.9 °F 13.8 °F 46% 29.69 in 10.0 mi North 23.0 mph 27.6 mph N/A   Clear
2:55 PM 32.0 °F 19.5 °F 14.5 °F 49% 29.70 in 10.0 mi North 21.9 mph 27.6 mph N/A   Clear
3:15 PM 32.0 °F 18.9 °F 14.0 °F 48% 29.71 in 10.0 mi North 24.2 mph 28.8 mph N/A   Clear
3:35 PM 31.8 °F 19.0 °F 13.5 °F 47% 29.72 in 10.0 mi North 23.0 mph 29.9 mph N/A   Clear
3:55 PM 30.9 °F 18.4 °F 14.0 °F 50% 29.74 in 10.0 mi North 20.7 mph 28.8 mph N/A   Clear
4:15 PM 29.8 °F 17.0 °F 14.0 °F 52% 29.75 in 10.0 mi North 20.7 mph 28.8 mph N/A   Clear
4:35 PM 28.4 °F 15.4 °F 13.6 °F 54% 29.76 in 10.0 mi North 19.6 mph 26.5 mph N/A   Clear
4:55 PM 25.7 °F 14.0 °F 13.5 °F 60% 29.77 in 10.0 mi North 13.8 mph - N/A   Clear
5:15 PM 23.7 °F 12.6 °F 13.6 °F 65% 29.79 in 10.0 mi North 11.5 mph - N/A   Clear
5:35 PM 22.1 °F 11.3 °F 13.5 °F 69% 29.79 in 10.0 mi North 10.4 mph - N/A   Clear
5:55 PM 20.7 °F 8.8 °F 13.1 °F 73% 29.81 in 10.0 mi North 11.5 mph - N/A   Clear
6:15 PM 21.2 °F 9.5 °F 13.1 °F 71% 29.82 in 10.0 mi NNW 11.5 mph - N/A   Clear
6:35 PM 20.3 °F 7.7 °F 13.1 °F 74% 29.83 in 10.0 mi North 12.7 mph - N/A   Clear
6:55 PM 20.1 °F 6.4 °F 12.9 °F 74% 29.83 in 10.0 mi North 15.0 mph - N/A   Clear
7:15 PM 18.5 °F 6.1 °F 12.7 °F 78% 29.83 in 10.0 mi North 11.5 mph - N/A   Clear
7:35 PM 20.3 °F 6.1 °F 13.3 °F 74% 29.84 in 10.0 mi North 16.1 mph 20.7 mph N/A   Clear
7:55 PM 21.0 °F 8.1 °F 13.6 °F 73% 29.86 in 10.0 mi NNW 13.8 mph - N/A   Clear
8:15 PM 19.4 °F 6.6 °F 13.5 °F 78% 29.87 in 10.0 mi NNW 12.7 mph - N/A   Clear
8:35 PM 19.6 °F 6.8 °F 13.5 °F 77% 29.88 in 10.0 mi NNW 12.7 mph - N/A   Clear
8:55 PM 19.4 °F 4.5 °F 13.6 °F 78% 29.88 in 10.0 mi NNW 17.3 mph - N/A   Clear
9:15 PM 19.9 °F 5.7 °F 15.8 °F 84% 29.88 in 10.0 mi NNW 16.1 mph - N/A   Clear
9:35 PM 19.8 °F 5.9 °F 16.5 °F 87% 29.88 in 10.0 mi NNW 15.0 mph - N/A   Clear
9:55 PM 19.2 °F 5.8 °F 16.0 °F 87% 29.88 in 10.0 mi NW 13.8 mph - N/A   Clear
10:15 PM 18.5 °F 4.3 °F 15.4 °F 88% 29.89 in 10.0 mi NW 15.0 mph - N/A   Clear
10:35 PM 19.0 °F 3.6 °F 14.9 °F 84% 29.90 in 10.0 mi NNW 18.4 mph - N/A   Clear
10:55 PM 19.2 °F 5.3 °F 13.8 °F 80% 29.90 in 10.0 mi NNW 15.0 mph - N/A   Clear
11:15 PM 18.1 °F 5.0 °F 13.1 °F 81% 29.91 in 10.0 mi NW 12.7 mph - N/A   Clear
11:35 PM 17.4 °F 2.4 °F 12.7 °F 82% 29.91 in 10.0 mi NW 16.1 mph 20.7 mph N/A   Clear
11:55 PM 16.5 °F 0.8 °F 11.3 °F 80% 29.92 in 10.0 mi NNW 17.3 mph - N/A   Clear